GABS/BKO METAR and TAF weather

Enter ICAO airport designator
Station Type Date Time Source
GABS METAR 2024/06/14 02:00 UTC NOAA

GABS 140200Z 21003KT 150V240 9999 FEW025 FEW030CB 24/23 Q1012 RETS NOSIG


Station Type Date Time Source
GABS Decoded METAR 2024/06/14 02:00 UTC NOAA

Bamako / Senou, Mali (GABS) 12-32N 007-57W 381M
Jun 13, 2024 - 10:00 PM EDT / 2024.06.14 0200 UTC
Wind: from the SSW (210 degrees) at 3 MPH (3 KT) (direction variable):0
Visibility: greater than 7 mile(s):0
Sky conditions: mostly clear
Weather: Cumulonimbus clouds observed
Temperature: 75 F (24 C)
Dew Point: 73 F (23 C)
Relative Humidity: 94%
Pressure (altimeter): 29.88 in. Hg (1012 hPa)
ob: GABS 140200Z 21003KT 150V240 9999 FEW025 FEW030CB 24/23 Q1012 RETS NOSIG
cycle: 2

Station Type Date Time Source
GABS TAF 2024/06/13 18:24 UTC NOAA